createdAt,value
2023-03-05T00:01:45.674Z,100942.28
2023-03-05T00:04:47.038Z,100948.38
2023-03-05T00:07:48.864Z,100944.88
2023-03-05T00:11:01.172Z,100941.38
2023-03-05T00:14:04.369Z,100944.00
2023-03-05T00:17:05.806Z,100932.69
2023-03-05T00:20:08.035Z,100924.88
2023-03-05T00:23:09.418Z,100935.28
2023-03-05T00:26:11.912Z,100924.84
2023-03-05T00:29:18.296Z,100937.06
2023-03-05T00:32:19.792Z,100926.59
2023-03-05T00:35:21.209Z,100929.19
2023-03-05T00:38:23.111Z,100930.06
2023-03-05T00:41:25.301Z,100926.59
2023-03-05T00:44:26.694Z,100926.56
2023-03-05T00:47:28.332Z,100923.13
2023-03-05T00:50:29.714Z,100917.91
2023-03-05T00:53:31.349Z,100917.03
2023-03-05T00:56:32.848Z,100915.28
2023-03-05T00:59:34.216Z,100904.81
2023-03-05T01:02:35.658Z,100901.31
2023-03-05T01:05:37.149Z,100900.47
2023-03-05T01:08:39.413Z,100902.22
2023-03-05T01:11:40.858Z,100894.38
2023-03-05T01:14:42.258Z,100888.28
2023-03-05T01:17:43.634Z,100884.81
2023-03-05T01:20:45.270Z,100885.69
2023-03-05T01:23:46.749Z,100882.22
2023-03-05T01:26:49.288Z,100876.09
2023-03-05T01:29:50.713Z,100882.22
2023-03-05T01:32:52.845Z,100872.66
2023-03-05T01:35:54.312Z,100866.56
2023-03-05T01:38:55.759Z,100857.84
2023-03-05T01:41:57.177Z,100861.34
2023-03-05T01:45:02.653Z,100857.84
2023-03-05T01:48:04.334Z,100857.81
2023-03-05T01:51:06.185Z,100855.22
2023-03-05T01:54:11.005Z,100859.59
2023-03-05T01:57:20.867Z,100853.47
2023-03-05T02:00:27.617Z,100854.38
2023-03-05T02:03:29.039Z,100858.72
2023-03-05T02:06:31.147Z,100849.16
2023-03-05T02:09:32.605Z,100850.88
2023-03-05T02:12:34.552Z,100844.81
2023-03-05T02:15:37.631Z,100847.41
2023-03-05T02:18:39.027Z,100844.81
2023-03-05T02:21:47.246Z,100840.47
2023-03-05T02:24:49.843Z,100837.00
2023-03-05T02:28:42.303Z,100832.63
2023-03-05T02:31:43.750Z,100828.28
2023-03-05T02:34:45.160Z,100822.19
2023-03-05T02:37:46.996Z,100819.59
2023-03-05T02:40:48.541Z,100824.81
2023-03-05T02:48:38.753Z,100814.38
2023-03-05T02:51:40.573Z,100812.63
2023-03-05T02:54:42.861Z,100805.69
2023-03-05T02:57:44.408Z,100810.03
2023-03-05T03:00:46.865Z,100805.69
2023-03-05T03:03:48.323Z,100802.22
2023-03-05T03:06:49.742Z,100799.59
2023-03-05T03:09:51.253Z,100796.94
2023-03-05T03:12:52.676Z,100786.56
2023-03-05T03:16:09.408Z,100790.91
2023-03-05T03:19:11.061Z,100784.81
2023-03-05T03:22:14.326Z,100777.84
2023-03-05T03:25:18.027Z,100776.13
2023-03-05T03:28:19.986Z,100776.09
2023-03-05T03:31:21.895Z,100769.16
2023-03-05T03:34:23.499Z,100774.38
2023-03-05T03:37:24.918Z,100770.03
2023-03-05T03:40:26.370Z,100766.56
2023-03-05T03:43:27.763Z,100759.59
2023-03-05T03:46:29.268Z,100769.19
2023-03-05T03:49:30.672Z,100758.72
2023-03-05T03:52:32.050Z,100755.25
2023-03-05T03:55:34.397Z,100765.69
2023-03-05T03:58:35.849Z,100761.34
2023-03-05T04:01:37.338Z,100757.88
2023-03-05T04:04:38.787Z,100759.59
2023-03-05T04:07:40.188Z,100760.47
2023-03-05T04:10:41.704Z,100750.03
2023-03-05T04:13:43.121Z,100748.25
2023-03-05T04:16:44.524Z,100747.41
2023-03-05T04:19:45.958Z,100740.41
2023-03-05T04:22:47.340Z,100752.63
2023-03-05T04:25:48.844Z,100740.47
2023-03-05T04:28:50.256Z,100746.56
2023-03-05T04:31:51.723Z,100745.69
2023-03-05T04:34:53.124Z,100742.22
2023-03-05T04:37:54.511Z,100741.38
2023-03-05T04:40:55.898Z,100741.38
2023-03-05T04:43:57.290Z,100727.41
2023-03-05T04:46:58.681Z,100736.09
2023-03-05T04:50:00.249Z,100731.72
2023-03-05T04:53:01.789Z,100730.88
2023-03-05T04:56:03.457Z,100730.00
2023-03-05T04:59:04.923Z,100728.28
2023-03-05T05:02:06.452Z,100732.63
2023-03-05T05:05:09.558Z,100729.19
2023-03-05T05:08:11.090Z,100728.31
2023-03-05T05:11:14.337Z,100729.16
2023-03-05T05:14:15.757Z,100717.88
2023-03-05T05:17:17.158Z,100725.72
2023-03-05T05:20:18.717Z,100717.03
2023-03-05T05:23:20.137Z,100710.06
2023-03-05T05:26:21.582Z,100717.03
2023-03-05T05:29:23.260Z,100721.38
2023-03-05T05:32:25.456Z,100714.44
2023-03-05T05:35:27.349Z,100716.16
2023-03-05T05:38:28.795Z,100716.16
2023-03-05T05:41:30.303Z,100714.41
2023-03-05T05:44:33.426Z,100716.97
2023-03-05T05:47:34.816Z,100716.09
2023-03-05T05:50:38.779Z,100720.47
2023-03-05T05:53:41.103Z,100714.38
2023-03-05T05:56:42.543Z,100704.84
2023-03-05T05:59:44.126Z,100716.09
2023-03-05T06:02:45.643Z,100714.41
2023-03-05T06:05:47.621Z,100716.09
2023-03-05T06:08:50.037Z,100702.22
2023-03-05T06:11:51.516Z,100708.28
2023-03-05T06:14:53.805Z,100711.78
2023-03-05T06:17:55.207Z,100711.78
2023-03-05T06:20:58.682Z,100706.56
2023-03-05T06:24:00.638Z,100706.56
2023-03-05T06:27:02.039Z,100706.56
2023-03-05T06:30:04.804Z,100710.06
2023-03-05T06:33:06.859Z,100705.69
2023-03-05T06:36:11.434Z,100707.44
2023-03-05T06:39:12.879Z,100709.22
2023-03-05T06:42:14.296Z,100704.00
2023-03-05T06:45:15.687Z,100696.16
2023-03-05T06:48:17.086Z,100695.28
2023-03-05T06:51:24.697Z,100703.94
2023-03-05T06:54:26.120Z,100715.25
2023-03-05T06:57:27.508Z,100703.13
2023-03-05T07:00:30.638Z,100696.16
2023-03-05T07:03:32.077Z,100700.50
2023-03-05T07:06:36.021Z,100694.41
2023-03-05T07:09:42.789Z,100700.50
2023-03-05T07:12:44.176Z,100699.63
2023-03-05T07:15:45.669Z,100697.91
2023-03-05T07:18:48.028Z,100701.38
2023-03-05T07:21:49.424Z,100688.31
2023-03-05T07:24:51.031Z,100690.06
2023-03-05T07:27:52.406Z,100697.84
2023-03-05T07:31:02.651Z,100691.78
2023-03-05T07:34:04.294Z,100697.88
2023-03-05T07:37:05.692Z,100692.66
2023-03-05T07:40:07.828Z,100688.31
2023-03-05T07:43:09.230Z,100686.59
2023-03-05T07:46:13.848Z,100691.78
2023-03-05T07:49:15.340Z,100683.94
2023-03-05T07:52:17.520Z,100698.72
2023-03-05T07:55:18.946Z,100696.06
2023-03-05T07:58:20.379Z,100690.00
2023-03-05T08:01:22.052Z,100688.22
2023-03-05T08:04:23.750Z,100696.91
2023-03-05T08:07:25.231Z,100692.53
2023-03-05T08:10:26.795Z,100693.41
2023-03-05T08:13:28.205Z,100692.50
2023-03-05T08:16:29.798Z,100685.53
2023-03-05T08:19:32.708Z,100680.28
2023-03-05T08:22:34.984Z,100678.47
2023-03-05T08:25:36.451Z,100670.63
2023-03-05T08:28:38.025Z,100673.19
2023-03-05T08:31:44.612Z,100667.06
2023-03-05T08:34:46.599Z,100664.28
2023-03-05T08:37:48.419Z,100660.81
2023-03-05T08:40:49.820Z,100669.47
2023-03-05T08:43:51.209Z,100667.69
2023-03-05T08:46:52.681Z,100667.69
2023-03-05T08:49:58.331Z,100664.94
2023-03-05T08:53:00.106Z,100668.38
2023-03-05T08:56:01.765Z,100664.06
2023-03-05T08:59:04.292Z,100660.75
2023-03-05T09:02:05.849Z,100660.69
2023-03-05T09:05:07.808Z,100660.63
2023-03-05T09:08:09.460Z,100657.88
2023-03-05T09:11:13.076Z,100650.84
2023-03-05T09:14:14.489Z,100651.81
2023-03-05T09:17:15.885Z,100651.75
2023-03-05T09:20:17.598Z,100643.97
2023-03-05T09:23:19.346Z,100641.25
2023-03-05T09:26:21.163Z,100631.59
2023-03-05T09:29:22.706Z,100640.28
2023-03-05T09:32:24.093Z,100625.50
2023-03-05T09:35:25.495Z,100629.00
2023-03-05T09:38:27.553Z,100624.69
2023-03-05T09:41:52.021Z,100628.13
2023-03-05T09:45:11.997Z,100629.09
2023-03-05T09:48:24.420Z,100624.69
2023-03-05T09:51:31.364Z,100626.38
2023-03-05T09:54:40.762Z,100616.03
2023-03-05T09:57:46.792Z,100622.09
2023-03-05T10:00:56.865Z,100620.31
2023-03-05T10:04:09.124Z,100619.47
2023-03-05T10:07:29.830Z,100616.91
2023-03-05T10:10:41.060Z,100609.91
2023-03-05T10:13:45.243Z,100609.88
2023-03-05T10:16:59.735Z,100604.69
2023-03-05T10:20:25.482Z,100604.75
2023-03-05T10:23:31.505Z,100606.44
2023-03-05T10:26:44.338Z,100592.44
2023-03-05T10:29:59.564Z,100587.22
2023-03-05T10:33:14.738Z,100587.13
2023-03-05T10:36:38.827Z,100588.03
2023-03-05T10:39:49.950Z,100581.78
2023-03-05T10:43:04.778Z,100584.31
2023-03-05T10:46:15.870Z,100574.53
2023-03-05T10:49:25.059Z,100571.09
2023-03-05T10:52:37.978Z,100569.38
2023-03-05T10:55:40.023Z,100571.16
2023-03-05T10:58:41.431Z,100567.69
2023-03-05T11:02:02.336Z,100559.78
2023-03-05T11:05:05.246Z,100555.34
2023-03-05T11:08:27.500Z,100555.25
2023-03-05T11:11:31.356Z,100549.13
2023-03-05T11:14:34.688Z,100546.59
2023-03-05T11:17:43.086Z,100538.38
2023-03-05T11:20:45.199Z,100536.94
2023-03-05T11:24:06.168Z,100539.31
2023-03-05T11:27:34.927Z,100538.53
2023-03-05T11:30:37.309Z,100534.16
2023-03-05T11:33:38.890Z,100541.78
2023-03-05T11:36:43.219Z,100525.41
2023-03-05T11:39:46.089Z,100521.06
2023-03-05T11:42:55.403Z,100518.44
2023-03-05T11:46:03.207Z,100525.63
2023-03-05T11:49:07.039Z,100519.56
2023-03-05T11:52:15.285Z,100522.97
2023-03-05T11:55:28.160Z,100510.63
2023-03-05T11:58:33.033Z,100508.06
2023-03-05T12:01:43.849Z,100504.47
2023-03-05T12:04:46.286Z,100500.13
2023-03-05T12:07:52.618Z,100495.94
2023-03-05T12:10:54.318Z,100488.72
2023-03-05T12:14:20.171Z,100488.53
2023-03-05T12:17:28.591Z,100475.34
2023-03-05T12:20:47.798Z,100470.97
2023-03-05T12:23:55.287Z,100469.94
2023-03-05T12:27:07.797Z,100462.06
2023-03-05T12:30:35.168Z,100455.44
2023-03-05T12:33:39.617Z,100452.22
2023-03-05T12:36:41.612Z,100438.94
2023-03-05T12:39:47.622Z,100439.53
2023-03-05T12:42:53.707Z,100432.28
2023-03-05T12:46:29.303Z,100422.47
2023-03-05T12:49:38.764Z,100425.69
2023-03-05T12:52:45.603Z,100424.25
2023-03-05T12:56:16.465Z,100425.00
2023-03-05T12:59:22.342Z,100419.69
2023-03-05T13:02:45.207Z,100409.38
2023-03-05T13:05:53.181Z,100407.72
2023-03-05T13:09:03.697Z,100400.53
2023-03-05T13:12:13.270Z,100405.88
2023-03-05T13:15:15.493Z,100399.75
2023-03-05T13:18:25.849Z,100394.63
2023-03-05T13:21:30.601Z,100395.38
2023-03-05T13:24:32.049Z,100393.69
2023-03-05T13:27:34.303Z,100390.28
2023-03-05T13:30:35.782Z,100391.97
2023-03-05T13:33:37.449Z,100390.25
2023-03-05T13:36:39.961Z,100379.91
2023-03-05T13:39:47.800Z,100379.06
2023-03-05T13:42:50.070Z,100377.47
2023-03-05T13:45:56.394Z,100378.38
2023-03-05T13:49:17.197Z,100375.72
2023-03-05T13:52:36.342Z,100367.97
2023-03-05T13:55:38.621Z,100370.69
2023-03-05T13:58:40.479Z,100373.44
2023-03-05T14:01:44.416Z,100361.31
2023-03-05T14:04:47.208Z,100358.66
2023-03-05T14:07:50.850Z,100362.19
2023-03-05T14:10:57.147Z,100354.41
2023-03-05T14:14:06.566Z,100352.66
2023-03-05T14:17:36.332Z,100347.16
2023-03-05T14:20:39.913Z,100342.03
2023-03-05T14:23:46.965Z,100338.69
2023-03-05T14:26:56.395Z,100339.56
2023-03-05T14:29:57.875Z,100333.56
2023-03-05T14:33:00.560Z,100326.63
2023-03-05T14:36:03.088Z,100324.72
2023-03-05T14:39:04.990Z,100313.88
2023-03-05T14:42:26.883Z,100312.41
2023-03-05T14:45:31.153Z,100309.81
2023-03-05T14:48:32.592Z,100299.44
2023-03-05T14:51:39.040Z,100302.16
2023-03-05T14:54:40.429Z,100293.44
2023-03-05T14:57:42.105Z,100288.22
2023-03-05T15:00:44.087Z,100286.53
2023-03-05T15:03:45.513Z,100279.50
2023-03-05T15:06:50.782Z,100282.88
2023-03-05T15:09:52.380Z,100272.50
2023-03-05T15:12:53.855Z,100264.63
2023-03-05T15:15:55.695Z,100270.75
2023-03-05T15:18:57.348Z,100263.59
2023-03-05T15:21:58.869Z,100252.97
2023-03-05T15:25:00.344Z,100253.09
2023-03-05T15:28:02.109Z,100249.50
2023-03-05T15:31:05.060Z,100244.84
2023-03-05T15:34:06.823Z,100239.03
2023-03-05T15:37:08.313Z,100235.56
2023-03-05T15:40:10.336Z,100233.94
2023-03-05T15:43:11.765Z,100233.00
2023-03-05T15:46:13.271Z,100226.19
2023-03-05T15:49:15.219Z,100227.78
2023-03-05T15:52:16.666Z,100216.84
2023-03-05T15:55:20.971Z,100212.63
2023-03-05T15:58:22.463Z,100211.50
2023-03-05T16:01:23.903Z,100207.94
2023-03-05T16:04:25.372Z,100198.41
2023-03-05T16:07:27.700Z,100191.19
2023-03-05T16:10:30.400Z,100192.06
2023-03-05T16:13:32.778Z,100193.81
2023-03-05T16:16:36.243Z,100181.59
2023-03-05T16:19:42.450Z,100180.06
2023-03-05T16:22:44.438Z,100171.38
2023-03-05T16:25:46.192Z,100166.22
2023-03-05T16:28:47.577Z,100160.31
2023-03-05T16:31:49.170Z,100170.94
2023-03-05T16:34:50.656Z,100163.84
2023-03-05T16:37:52.100Z,100162.00
2023-03-05T16:41:07.205Z,100162.22
2023-03-05T16:44:09.325Z,100167.34
2023-03-05T16:47:12.182Z,100161.97
2023-03-05T16:50:13.632Z,100161.91
2023-03-05T16:53:15.031Z,100157.53
2023-03-05T16:56:16.711Z,100163.78
2023-03-05T16:59:18.142Z,100152.53
2023-03-05T17:02:19.568Z,100148.84
2023-03-05T17:05:20.995Z,100151.38
2023-03-05T17:08:24.262Z,100151.25
2023-03-05T17:11:25.845Z,100146.94
2023-03-05T17:14:27.445Z,100142.56
2023-03-05T17:17:28.913Z,100150.44
2023-03-05T17:20:30.607Z,100144.47
2023-03-05T17:23:36.972Z,100148.88
2023-03-05T17:26:38.384Z,100154.13
2023-03-05T17:29:39.911Z,100141.91
2023-03-05T17:32:41.574Z,100146.28
2023-03-05T17:35:47.191Z,100149.78
2023-03-05T17:38:49.577Z,100153.25
2023-03-05T17:41:51.002Z,100146.31
2023-03-05T17:44:52.495Z,100153.38
2023-03-05T17:47:54.260Z,100148.16
2023-03-05T17:50:55.988Z,100144.69
2023-03-05T17:53:58.619Z,100149.16
2023-03-05T17:57:00.731Z,100151.88
2023-03-05T18:00:03.541Z,100151.91
2023-03-05T18:03:13.501Z,100146.66
2023-03-05T18:06:15.829Z,100147.59
2023-03-05T18:09:17.450Z,100148.41
2023-03-05T18:12:18.826Z,100146.69
2023-03-05T18:15:22.280Z,100146.69
2023-03-05T18:18:23.687Z,100143.25
2023-03-05T18:21:27.847Z,100138.06
2023-03-05T18:24:29.230Z,100134.63
2023-03-05T18:27:31.055Z,100132.03
2023-03-05T18:30:33.218Z,100133.78
2023-03-05T18:33:35.074Z,100133.91
2023-03-05T18:36:36.515Z,100134.16
2023-03-05T18:39:38.168Z,100126.50
2023-03-05T18:42:39.554Z,100120.31
2023-03-05T18:45:40.996Z,100117.63
2023-03-05T18:48:42.732Z,100115.09
2023-03-05T18:51:45.606Z,100105.59
2023-03-05T18:54:47.098Z,100106.44
2023-03-05T18:57:49.236Z,100103.13
2023-03-05T19:00:51.802Z,100099.72
2023-03-05T19:03:53.513Z,100105.06
2023-03-05T19:06:54.913Z,100110.31
2023-03-05T19:09:59.599Z,100100.63
2023-03-05T19:13:18.569Z,100106.75
2023-03-05T19:16:30.294Z,100102.28
2023-03-05T19:19:31.692Z,100093.56
2023-03-05T19:22:33.730Z,100096.09
2023-03-05T19:25:36.554Z,100095.22
2023-03-05T19:28:38.027Z,100090.91
2023-03-05T19:31:39.533Z,100087.38
2023-03-05T19:34:41.899Z,100084.75
2023-03-05T19:37:45.772Z,100093.53
2023-03-05T19:40:47.492Z,100088.34
2023-03-05T19:43:50.032Z,100090.19
2023-03-05T19:46:51.474Z,100080.59
2023-03-05T19:49:52.880Z,100088.53
2023-03-05T19:52:54.351Z,100076.41
2023-03-05T19:55:56.449Z,100072.06
2023-03-05T19:58:57.876Z,100068.63
2023-03-05T20:01:59.398Z,100063.25
2023-03-05T20:05:00.944Z,100058.13
2023-03-05T20:08:02.686Z,100046.94
2023-03-05T20:11:04.701Z,100047.13
2023-03-05T20:14:07.297Z,100050.75
2023-03-05T20:17:08.756Z,100046.47
2023-03-05T20:20:13.097Z,100034.25
2023-03-05T20:23:14.518Z,100039.41
2023-03-05T20:26:16.432Z,100028.00
2023-03-05T20:29:18.691Z,100030.66
2023-03-05T20:32:20.295Z,100034.16
2023-03-05T20:35:21.844Z,100030.66
2023-03-05T20:38:25.277Z,100038.50
2023-03-05T20:41:26.876Z,100040.28
2023-03-05T20:44:28.349Z,100032.41
2023-03-05T20:47:40.523Z,100031.53
2023-03-05T20:50:42.136Z,100023.69
2023-03-05T20:53:43.564Z,100021.09
2023-03-05T20:56:45.161Z,100023.81
2023-03-05T20:59:46.615Z,100030.91
2023-03-05T21:02:50.988Z,100032.81
2023-03-05T21:05:55.644Z,100032.81
2023-03-05T21:08:57.197Z,100023.16
2023-03-05T21:11:58.574Z,100018.00
2023-03-05T21:15:00.282Z,100022.34
2023-03-05T21:18:01.895Z,100009.09
2023-03-05T21:21:03.753Z,100009.94
2023-03-05T21:24:05.549Z,100003.81
2023-03-05T21:27:06.938Z,100005.59
2023-03-05T21:30:11.152Z,100003.09
2023-03-05T21:33:22.969Z,100002.22
2023-03-05T21:36:24.480Z,99999.63
2023-03-05T21:39:25.876Z,99995.38
2023-03-05T21:42:27.310Z,99997.34
2023-03-05T21:45:30.186Z,99987.75
2023-03-05T21:48:32.124Z,99974.69
2023-03-05T21:51:40.485Z,99972.91
2023-03-05T21:54:42.836Z,99971.00
2023-03-05T21:57:45.120Z,99966.56
2023-03-05T22:00:46.520Z,99963.94
2023-03-05T22:03:49.359Z,99964.88
2023-03-05T22:06:50.798Z,99963.09
2023-03-05T22:09:56.360Z,99953.50
2023-03-05T22:13:11.456Z,99957.84
2023-03-05T22:16:21.310Z,99951.72
2023-03-05T22:19:22.745Z,99939.50
2023-03-05T22:22:24.126Z,99943.03
2023-03-05T22:25:25.499Z,99933.53
2023-03-05T22:28:27.592Z,99929.28
2023-03-05T22:31:30.328Z,99926.78
2023-03-05T22:34:31.738Z,99925.13
2023-03-05T22:37:33.460Z,99916.47
2023-03-05T22:40:36.889Z,99912.94
2023-03-05T22:43:38.813Z,99911.00
2023-03-05T22:46:40.244Z,99900.75
2023-03-05T22:49:41.739Z,99901.75
2023-03-05T22:52:43.286Z,99900.00
2023-03-05T22:55:44.756Z,99891.22
2023-03-05T22:58:46.196Z,99887.72
2023-03-05T23:01:47.637Z,99886.72
2023-03-05T23:04:53.195Z,99889.47
2023-03-05T23:07:54.674Z,99882.53
2023-03-05T23:10:56.090Z,99885.13
2023-03-05T23:13:57.476Z,99879.09
2023-03-05T23:16:58.862Z,99869.59
2023-03-05T23:20:00.277Z,99868.75
2023-03-05T23:23:02.148Z,99861.75
2023-03-05T23:26:03.530Z,99860.13
2023-03-05T23:29:04.929Z,99850.59
2023-03-05T23:32:06.515Z,99860.94
2023-03-05T23:35:10.494Z,99857.47
2023-03-05T23:38:13.894Z,99860.78
2023-03-05T23:41:15.353Z,99854.78
2023-03-05T23:44:16.797Z,99851.44
2023-03-05T23:47:18.176Z,99848.00
2023-03-05T23:50:29.079Z,99847.91
2023-03-05T23:53:32.740Z,99834.06
2023-03-05T23:56:34.120Z,99830.59
2023-03-05T23:59:36.010Z,99831.56
